Time;durP1;ratioP1;P1;durP2;ratioP2;P2;SDS_P1;SDS_P2;PMS_P1;PMS_P2;Temp;Humidity;BMP_temperature;BMP_pressure;BME280_temperature;BME280_humidity;BME280_pressure;Samples;Min_cycle;Max_cycle;Signal;HPM_P1;HPM_P2
2023/08/04 04:01:31;;;;;;;0.60;0.10;;;18.00;99.90;;;;;;5479421;23;20521;-73
2023/08/04 04:03:59;;;;;;;0.60;0.10;;;17.80;99.90;;;;;;4992972;28;20463;-74
2023/08/04 04:06:27;;;;;;;0.60;0.10;;;17.80;99.90;;;;;;5004288;28;20501;-73
2023/08/04 04:08:55;;;;;;;0.60;0.10;;;17.70;99.90;;;;;;5007643;28;20451;-74
2023/08/04 04:11:23;;;;;;;0.60;0.10;;;17.70;99.90;;;;;;5014806;28;20547;-74
2023/08/04 04:13:50;;;;;;;0.60;0.10;;;17.60;99.90;;;;;;5016141;28;20444;-73
2023/08/04 04:16:18;;;;;;;0.70;0.30;;;17.60;99.90;;;;;;5097755;23;20863;-74
2023/08/04 04:18:47;;;;;;;0.60;0.10;;;17.70;99.90;;;;;;4974853;28;20477;-74
2023/08/04 04:21:15;;;;;;;0.60;0.10;;;17.60;99.90;;;;;;5019372;28;20466;-74
2023/08/04 04:23:43;;;;;;;2.30;2.20;;;17.60;99.90;;;;;;5028690;28;20448;-74
2023/08/04 04:26:11;;;;;;;0.60;0.10;;;17.60;99.90;;;;;;5021876;28;20537;-74
2023/08/04 04:28:39;;;;;;;0.60;0.10;;;17.60;99.90;;;;;;5005677;28;20488;-74
2023/08/04 04:31:07;;;;;;;0.60;0.10;;;17.60;99.90;;;;;;4980880;28;20489;-74
2023/08/04 04:33:34;;;;;;;0.60;0.10;;;17.60;99.90;;;;;;4984449;28;20491;-74
2023/08/04 04:36:04;;;;;;;0.60;0.10;;;17.60;99.90;;;;;;4999426;28;20546;-74
2023/08/04 04:38:32;;;;;;;0.60;0.10;;;17.60;99.90;;;;;;5005426;28;20440;-73
2023/08/04 04:41:01;;;;;;;0.60;0.10;;;17.60;99.90;;;;;;5013554;28;20473;-73
2023/08/04 04:43:30;;;;;;;0.60;0.10;;;17.70;99.90;;;;;;5013798;28;21027;-74
2023/08/04 04:45:58;;;;;;;0.60;0.10;;;17.70;99.90;;;;;;5014098;28;20891;-74
2023/08/04 04:48:26;;;;;;;0.60;0.10;;;17.70;99.90;;;;;;5014678;28;20995;-74
2023/08/04 04:50:54;;;;;;;0.60;0.10;;;17.70;99.90;;;;;;5014353;28;20448;-73
2023/08/04 04:53:23;;;;;;;0.60;0.10;;;17.70;99.90;;;;;;5014580;28;20447;-75
2023/08/04 04:55:51;;;;;;;0.60;0.10;;;17.70;99.90;;;;;;5013914;28;20467;-74
2023/08/04 04:58:18;;;;;;;0.60;0.10;;;17.70;99.90;;;;;;5013374;28;20967;-73
2023/08/04 05:00:46;;;;;;;0.60;0.10;;;17.70;99.90;;;;;;5013230;28;20543;-74
2023/08/04 05:03:15;;;;;;;0.60;0.10;;;17.70;99.90;;;;;;5013533;28;20453;-73
2023/08/04 05:05:45;;;;;;;0.60;0.10;;;17.70;99.90;;;;;;5012787;28;20983;-73
2023/08/04 05:08:13;;;;;;;0.60;0.10;;;17.60;99.90;;;;;;5003733;28;20555;-75
2023/08/04 05:10:42;;;;;;;2.73;2.53;;;17.60;99.90;;;;;;4993768;28;20484;-75
2023/08/04 05:13:10;;;;;;;0.60;0.10;;;17.60;99.90;;;;;;4993270;28;20451;-74
2023/08/04 05:15:38;;;;;;;0.60;0.10;;;17.50;99.90;;;;;;4993298;28;20448;-74
2023/08/04 05:18:05;;;;;;;0.60;0.10;;;17.50;99.90;;;;;;4974278;28;20487;-75
2023/08/04 05:20:33;;;;;;;0.60;0.10;;;17.50;99.90;;;;;;4974004;28;20452;-75
2023/08/04 05:23:01;;;;;;;0.60;0.13;;;17.50;99.90;;;;;;4974275;28;20480;-74
2023/08/04 05:25:29;;;;;;;0.60;0.10;;;17.50;99.90;;;;;;4993815;28;20449;-74
2023/08/04 05:28:20;;;;;;;0.90;0.63;;;17.50;99.90;;;;;;4993150;28;20476;-74
2023/08/04 05:30:48;;;;;;;0.60;0.10;;;17.60;99.90;;;;;;4992869;28;20476;-75
2023/08/04 05:33:15;;;;;;;0.60;0.10;;;17.60;99.90;;;;;;4992792;28;20451;-75
2023/08/04 05:35:47;;;;;;;0.60;0.10;;;17.70;99.90;;;;;;4993134;28;20560;-74
2023/08/04 05:38:15;;;;;;;0.60;0.10;;;17.70;99.90;;;;;;4993062;28;20502;-74
2023/08/04 05:40:44;;;;;;;0.60;0.10;;;17.80;99.90;;;;;;4991983;28;20525;-74
2023/08/04 05:43:14;;;;;;;0.60;0.13;;;17.80;99.90;;;;;;4992855;28;20454;-73
2023/08/04 05:45:43;;;;;;;0.60;0.10;;;17.90;99.90;;;;;;5002789;28;20479;-75
2023/08/04 05:48:12;;;;;;;0.60;0.10;;;17.90;99.90;;;;;;5011646;28;20479;-73
2023/08/04 05:50:40;;;;;;;0.60;0.10;;;18.00;99.90;;;;;;4994738;28;20929;-73
2023/08/04 05:53:08;;;;;;;0.60;0.20;;;18.00;99.90;;;;;;4992125;28;20532;-74
2023/08/04 05:55:36;;;;;;;0.60;0.10;;;18.10;99.90;;;;;;4993692;28;20459;-74
2023/08/04 05:58:04;;;;;;;0.60;0.10;;;18.10;99.90;;;;;;5011490;28;20486;-72
2023/08/04 06:00:35;;;;;;;0.60;0.10;;;18.10;99.90;;;;;;5011757;28;20525;-73
2023/08/04 06:03:04;;;;;;;0.60;0.10;;;18.20;99.90;;;;;;5006293;28;20453;-73
2023/08/04 06:05:32;;;;;;;0.60;0.20;;;18.20;99.90;;;;;;5002721;28;20484;-76
2023/08/04 06:08:00;;;;;;;1.57;0.93;;;18.30;99.90;;;;;;5012050;28;20479;-74
2023/08/04 06:10:28;;;;;;;0.60;0.40;;;18.30;99.90;;;;;;4998671;28;20546;-74
2023/08/04 06:12:56;;;;;;;0.60;0.13;;;18.40;99.90;;;;;;4994753;28;20495;-73
2023/08/04 06:15:24;;;;;;;0.60;0.10;;;18.50;99.90;;;;;;4993412;28;20562;-73
2023/08/04 06:17:53;;;;;;;0.60;0.10;;;18.60;99.90;;;;;;4989007;28;21064;-73
2023/08/04 06:20:21;;;;;;;0.60;0.10;;;17.60;99.90;;;;;;4976548;28;20757;-72
2023/08/04 06:22:49;;;;;;;0.60;0.10;;;18.80;99.90;;;;;;4979600;28;20480;-74
2023/08/04 06:25:17;;;;;;;0.60;0.10;;;18.80;99.90;;;;;;4981260;28;20508;-73
2023/08/04 06:27:45;;;;;;;0.60;0.10;;;18.90;99.90;;;;;;4982838;28;20497;-75
2023/08/04 06:30:13;;;;;;;0.60;0.10;;;18.90;99.90;;;;;;5002147;28;20543;-75
2023/08/04 06:32:40;;;;;;;0.60;0.10;;;19.00;99.90;;;;;;4998482;28;20793;-73
2023/08/04 06:35:10;;;;;;;0.60;0.10;;;19.10;99.90;;;;;;5000742;28;20460;-76
2023/08/04 06:37:38;;;;;;;0.60;0.10;;;19.10;99.90;;;;;;4999090;28;20504;-74
2023/08/04 06:40:10;;;;;;;0.60;0.10;;;;;;;;;;4997687;28;20480;-75
2023/08/04 06:42:38;;;;;;;0.60;0.10;;;;;;;;;;4996531;28;20471;-74
2023/08/04 06:45:07;;;;;;;0.60;0.20;;;19.20;99.90;;;;;;4978764;28;20889;-73
2023/08/04 06:47:35;;;;;;;0.60;0.10;;;20.70;99.90;;;;;;4980853;28;20496;-72
2023/08/04 06:50:04;;;;;;;0.60;0.17;;;19.20;99.90;;;;;;4998231;28;21087;-74
2023/08/04 06:52:33;;;;;;;0.60;0.10;;;19.20;99.90;;;;;;4997916;28;21742;-73
2023/08/04 06:55:01;;;;;;;0.70;0.50;;;19.30;99.90;;;;;;4997562;28;20445;-73
2023/08/04 06:57:32;;;;;;;0.60;0.10;;;19.30;99.90;;;;;;4998556;28;20492;-74
2023/08/04 07:00:00;;;;;;;0.60;0.10;;;19.40;99.90;;;;;;4998258;28;20560;-73
2023/08/04 07:02:28;;;;;;;0.60;0.10;;;19.40;99.90;;;;;;4998004;28;20536;-73
2023/08/04 07:04:56;;;;;;;0.60;0.10;;;19.40;99.90;;;;;;4999255;28;20476;-73
2023/08/04 07:07:24;;;;;;;0.60;0.10;;;19.50;99.90;;;;;;4995951;28;20476;-74
2023/08/04 07:09:53;;;;;;;0.60;0.10;;;19.50;99.90;;;;;;4994964;28;20833;-73
2023/08/04 07:12:21;;;;;;;0.60;0.20;;;19.50;99.90;;;;;;4994464;28;20449;-73
2023/08/04 07:14:49;;;;;;;0.60;0.10;;;19.50;99.90;;;;;;4994031;28;20441;-74
2023/08/04 07:17:17;;;;;;;0.60;0.10;;;19.50;99.90;;;;;;4996296;28;20472;-74
2023/08/04 07:19:47;;;;;;;0.60;0.10;;;19.50;99.90;;;;;;4994140;28;20474;-74
2023/08/04 07:22:15;;;;;;;0.60;0.20;;;19.50;99.90;;;;;;4976948;28;20517;-72
2023/08/04 07:24:44;;;;;;;0.60;0.10;;;19.50;99.90;;;;;;4976884;28;20576;-72
2023/08/04 07:27:13;;;;;;;0.60;0.10;;;19.50;99.90;;;;;;4981773;28;20563;-74
2023/08/04 07:29:41;;;;;;;0.60;0.10;;;19.60;99.90;;;;;;4995364;28;20486;-73
2023/08/04 07:32:09;;;;;;;0.60;0.10;;;19.60;99.90;;;;;;4995700;28;20900;-73
2023/08/04 07:34:36;;;;;;;0.60;0.10;;;19.60;99.90;;;;;;4996764;28;20524;-74
2023/08/04 07:37:05;;;;;;;0.60;0.20;;;19.70;99.90;;;;;;4995139;28;20905;-74
2023/08/04 07:39:33;;;;;;;0.70;0.40;;;19.70;99.90;;;;;;5000444;28;20440;-72
2023/08/04 07:42:01;;;;;;;0.60;0.10;;;19.60;99.90;;;;;;5008663;28;20476;-72
2023/08/04 07:44:30;;;;;;;0.60;0.10;;;19.60;99.90;;;;;;5006243;28;20510;-73
2023/08/04 07:46:58;;;;;;;0.60;0.10;;;19.60;99.90;;;;;;5000075;28;20947;-74
2023/08/04 07:49:26;;;;;;;0.60;0.30;;;19.00;99.90;;;;;;4996541;28;20488;-75
2023/08/04 07:51:55;;;;;;;0.60;0.10;;;19.70;99.90;;;;;;4997103;28;20480;-73
2023/08/04 07:54:23;;;;;;;0.60;0.20;;;19.70;99.90;;;;;;4997075;28;20540;-75
2023/08/04 07:56:51;;;;;;;0.60;0.20;;;19.80;99.90;;;;;;4992658;28;20497;-74
2023/08/04 07:59:18;;;;;;;0.60;0.10;;;19.80;99.90;;;;;;4997533;28;20452;-74
2023/08/04 08:01:48;;;;;;;0.60;0.10;;;19.80;99.90;;;;;;4997361;28;20504;-73
2023/08/04 08:04:16;;;;;;;0.60;0.10;;;19.90;99.90;;;;;;4996053;28;20504;-72
2023/08/04 08:06:44;;;;;;;0.60;0.10;;;19.90;99.90;;;;;;4995950;28;20487;-73
2023/08/04 08:09:12;;;;;;;0.60;0.10;;;20.00;99.90;;;;;;4995551;28;20473;-74
2023/08/04 08:11:40;;;;;;;0.60;0.10;;;20.00;99.90;;;;;;4996719;28;20528;-73
2023/08/04 08:14:07;;;;;;;0.60;0.10;;;20.10;99.90;;;;;;4991777;28;20465;-73
2023/08/04 08:16:35;;;;;;;0.60;0.10;;;20.20;99.90;;;;;;4990122;28;20501;-74
2023/08/04 08:19:04;;;;;;;0.60;0.10;;;20.20;99.90;;;;;;4996645;28;20455;-76
2023/08/04 08:21:32;;;;;;;0.60;0.20;;;20.20;99.90;;;;;;4980401;28;20443;-72
2023/08/04 08:24:00;;;;;;;0.60;0.10;;;20.30;99.90;;;;;;4985144;28;20882;-73
2023/08/04 08:26:28;;;;;;;0.60;0.10;;;20.20;99.90;;;;;;4990306;28;20494;-74
2023/08/04 08:28:56;;;;;;;0.60;0.10;;;20.20;99.90;;;;;;4986528;28;20479;-75
2023/08/04 08:31:24;;;;;;;0.60;0.10;;;20.30;99.90;;;;;;4989314;28;20507;-75
2023/08/04 08:33:52;;;;;;;0.60;0.10;;;20.30;99.90;;;;;;4986650;28;20447;-74
2023/08/04 08:36:21;;;;;;;0.60;0.10;;;20.30;99.90;;;;;;4987203;28;20467;-75
2023/08/04 08:38:49;;;;;;;0.60;0.10;;;20.30;99.90;;;;;;4994805;28;20811;-75
2023/08/04 08:41:17;;;;;;;0.60;0.10;;;20.30;99.90;;;;;;4988201;28;20443;-72
2023/08/04 08:43:46;;;;;;;0.60;0.10;;;20.30;99.90;;;;;;4986578;28;20450;-74
2023/08/04 08:46:15;;;;;;;0.60;0.10;;;20.40;99.90;;;;;;4989076;28;21193;-74
2023/08/04 08:48:44;;;;;;;0.60;0.20;;;20.40;99.90;;;;;;4996352;28;20452;-76
2023/08/04 08:51:28;;;;;;;0.60;0.10;;;20.40;99.90;;;;;;4990903;28;20573;-75
2023/08/04 08:54:03;;;;;;;0.60;0.10;;;20.40;99.90;;;;;;4980225;28;20442;-76
2023/08/04 08:56:31;;;;;;;0.60;0.10;;;20.40;99.90;;;;;;4985468;28;20653;-75
2023/08/04 08:58:59;;;;;;;0.60;0.10;;;20.40;99.90;;;;;;4995349;28;20460;-74
2023/08/04 09:01:27;;;;;;;0.60;0.10;;;20.40;99.90;;;;;;4996314;28;20453;-74
2023/08/04 09:03:55;;;;;;;0.60;0.20;;;20.40;99.90;;;;;;4995839;28;20450;-73
2023/08/04 09:06:24;;;;;;;0.60;0.10;;;20.40;99.90;;;;;;4995724;28;20847;-74
2023/08/04 09:08:54;;;;;;;0.60;0.10;;;20.30;99.90;;;;;;4994143;28;20458;-72
2023/08/04 09:11:22;;;;;;;0.60;0.10;;;20.30;99.90;;;;;;4994026;28;20486;-73
2023/08/04 09:13:50;;;;;;;0.60;0.10;;;20.30;99.90;;;;;;4994050;28;20478;-73
2023/08/04 09:16:32;;;;;;;0.60;0.10;;;20.30;99.90;;;;;;4982327;28;20471;-72
2023/08/04 09:19:04;;;;;;;0.60;0.10;;;20.20;99.90;;;;;;4975956;28;20449;-72
2023/08/04 09:21:34;;;;;;;0.60;0.10;;;20.20;99.90;;;;;;4973659;28;20443;-71
2023/08/04 09:24:03;;;;;;;0.60;0.10;;;20.10;99.90;;;;;;4979722;28;20859;-75
2023/08/04 09:26:41;;;;;;;0.60;0.10;;;20.10;99.90;;;;;;4984878;28;20854;-71
2023/08/04 09:29:09;;;;;;;0.60;0.10;;;20.10;99.90;;;;;;4989445;28;20450;-71
2023/08/04 09:31:38;;;;;;;0.60;0.20;;;20.00;99.90;;;;;;4995309;28;20545;-72
2023/08/04 09:34:08;;;;;;;0.60;0.10;;;20.00;99.90;;;;;;4983683;28;20446;-73
2023/08/04 09:36:43;;;;;;;0.60;0.10;;;20.00;99.90;;;;;;4978206;28;21005;-71
2023/08/04 09:39:12;;;;;;;0.60;0.10;;;19.90;99.90;;;;;;4993006;28;20546;-73
2023/08/04 09:41:45;;;;;;;0.60;0.10;;;19.90;99.90;;;;;;4982378;28;20458;-72
2023/08/04 09:44:15;;;;;;;0.60;0.10;;;19.90;99.90;;;;;;4986935;28;20440;-72
2023/08/04 09:46:49;;;;;;;0.60;0.10;;;19.80;99.90;;;;;;4992819;28;20523;-71
2023/08/04 09:49:18;;;;;;;0.60;0.10;;;19.80;99.90;;;;;;4993510;28;20441;-72
2023/08/04 09:51:49;;;;;;;0.60;0.10;;;19.80;99.90;;;;;;4973532;28;20535;-71
2023/08/04 09:54:17;;;;;;;0.60;0.10;;;19.80;99.90;;;;;;4974221;28;20475;-73
2023/08/04 09:56:45;;;;;;;0.60;0.10;;;20.60;99.90;;;;;;4972566;28;20475;-72
2023/08/04 09:59:14;;;;;;;0.60;0.10;;;19.70;99.90;;;;;;4981891;28;20451;-72
2023/08/04 10:01:42;;;;;;;4.17;2.00;;;19.80;99.90;;;;;;4982058;28;20977;-72
2023/08/04 10:04:11;;;;;;;0.60;0.10;;;19.90;99.90;;;;;;4983584;28;20529;-73
2023/08/04 10:06:39;;;;;;;0.60;0.10;;;19.90;99.90;;;;;;4992593;28;20553;-73
2023/08/04 10:09:09;;;;;;;0.60;0.10;;;20.00;99.90;;;;;;4984870;28;20514;-71
2023/08/04 10:11:37;;;;;;;0.60;0.20;;;20.00;99.90;;;;;;4972983;28;20482;-73
2023/08/04 10:14:05;;;;;;;0.60;0.10;;;20.00;99.90;;;;;;4973871;28;20483;-72
2023/08/04 10:16:36;;;;;;;0.60;0.17;;;19.90;99.90;;;;;;4985932;28;20486;-72
2023/08/04 10:19:06;;;;;;;0.60;0.10;;;19.90;99.90;;;;;;4991658;28;20956;-71
2023/08/04 10:21:39;;;;;;;0.60;0.10;;;19.90;99.90;;;;;;4994845;28;20450;-71
2023/08/04 10:24:10;;;;;;;2.50;0.50;;;19.90;99.90;;;;;;5036062;23;20707;-78
2023/08/04 10:26:46;;;;;;;0.60;0.10;;;19.90;99.90;;;;;;4964517;28;20980;-78
2023/08/04 10:29:15;;;;;;;0.60;0.10;;;19.90;99.90;;;;;;4971516;28;20450;-78
2023/08/04 10:31:51;;;;;;;0.60;0.10;;;19.90;99.90;;;;;;4972197;28;21078;-78
2023/08/04 10:34:27;;;;;;;0.60;0.10;;;19.90;99.90;;;;;;4963324;28;20470;-78
2023/08/04 10:37:06;;;;;;;0.60;0.10;;;19.90;99.90;;;;;;4952981;29;20462;-78
2023/08/04 10:39:37;;;;;;;0.60;0.10;;;19.90;99.90;;;;;;4952936;29;20880;-77
2023/08/04 10:42:13;;;;;;;0.60;0.10;;;20.00;99.90;;;;;;4953666;29;20453;-77
2023/08/04 10:44:53;;;;;;;0.60;0.10;;;20.00;99.90;;;;;;4953551;28;20470;-78
2023/08/04 10:47:42;;;;;;;0.60;0.10;;;20.10;99.90;;;;;;4953011;29;20479;-78
2023/08/04 10:50:26;;;;;;;0.60;0.20;;;20.20;99.90;;;;;;4956925;29;20824;-77
2023/08/04 10:52:54;;;;;;;0.60;0.10;;;20.30;99.90;;;;;;4957034;29;20952;-77
2023/08/04 10:55:25;;;;;;;0.60;0.10;;;20.40;99.90;;;;;;4956279;28;20985;-78
2023/08/04 10:57:53;;;;;;;0.60;0.10;;;20.40;99.90;;;;;;4949693;29;20494;-78
2023/08/04 11:00:21;;;;;;;1.37;0.60;;;20.40;99.90;;;;;;4956566;28;20871;-77
2023/08/04 11:02:49;;;;;;;0.60;0.10;;;20.50;99.90;;;;;;4956248;29;20451;-78
2023/08/04 11:05:17;;;;;;;0.80;0.50;;;20.50;99.90;;;;;;4956119;28;20481;-77
2023/08/04 11:07:47;;;;;;;0.60;0.10;;;20.60;99.90;;;;;;4937910;29;20535;-77
2023/08/04 11:10:16;;;;;;;0.60;0.10;;;20.60;99.90;;;;;;4937362;29;20455;-77
2023/08/04 11:12:45;;;;;;;0.60;0.10;;;20.70;99.90;;;;;;4936983;29;20456;-78
2023/08/04 11:15:13;;;;;;;0.60;0.10;;;;;;;;;;4936729;29;20572;-77
2023/08/04 11:17:42;;;;;;;0.60;0.20;;;;;;;;;;4955135;29;20458;-76
2023/08/04 11:20:12;;;;;;;0.60;0.10;;;20.80;99.90;;;;;;4955942;28;20964;-75
2023/08/04 11:22:46;;;;;;;0.60;0.10;;;20.90;99.90;;;;;;4956632;29;20519;-76
2023/08/04 11:25:14;;;;;;;0.60;0.20;;;21.00;99.90;;;;;;4955470;28;20491;-77
2023/08/04 11:27:42;;;;;;;0.60;0.20;;;;;;;;;;4954450;29;20448;-77
2023/08/04 11:30:12;;;;;;;0.60;0.20;;;21.10;99.90;;;;;;4957140;28;20457;-77
2023/08/04 11:32:41;;;;;;;0.60;0.10;;;;;;;;;;4957063;28;20559;-78
2023/08/04 11:35:09;;;;;;;0.60;0.10;;;21.20;99.90;;;;;;4957680;28;20980;-77
2023/08/04 11:37:37;;;;;;;0.60;0.10;;;21.20;99.90;;;;;;4956921;28;20479;-78
2023/08/04 11:40:19;;;;;;;0.60;0.13;;;21.20;99.90;;;;;;4956020;28;20448;-77
2023/08/04 11:42:47;;;;;;;0.60;0.10;;;21.30;99.90;;;;;;4955906;28;20460;-77
2023/08/04 11:45:17;;;;;;;0.60;0.10;;;21.40;99.90;;;;;;4956016;28;20476;-77
2023/08/04 11:47:46;;;;;;;0.60;0.20;;;21.40;99.90;;;;;;4956479;29;20531;-78
2023/08/04 11:50:16;;;;;;;0.60;0.10;;;21.60;99.90;;;;;;4956261;28;20987;-77
2023/08/04 11:52:47;;;;;;;0.60;0.10;;;;;;;;;;4956409;28;20515;-77
2023/08/04 11:55:15;;;;;;;0.60;0.10;;;21.90;99.90;;;;;;4956362;28;20485;-77
2023/08/04 11:57:50;;;;;;;0.60;0.10;;;22.00;99.90;;;;;;4955915;28;21029;-76
2023/08/04 12:00:33;;;;;;;0.60;0.10;;;22.10;99.90;;;;;;4955277;28;20451;-78
2023/08/04 12:03:02;;;;;;;0.60;0.10;;;22.10;99.90;;;;;;4956588;29;20542;-77
2023/08/04 12:05:31;;;;;;;0.60;0.10;;;22.30;99.90;;;;;;4955810;28;20476;-78
2023/08/04 12:08:00;;;;;;;0.60;0.10;;;22.30;99.90;;;;;;4956389;28;20508;-78
2023/08/04 12:10:28;;;;;;;0.60;0.10;;;22.40;99.90;;;;;;4956126;28;20507;-77
2023/08/04 12:12:56;;;;;;;0.60;0.10;;;22.40;99.90;;;;;;4956028;28;20517;-78
2023/08/04 12:15:26;;;;;;;0.60;0.10;;;22.40;99.90;;;;;;4955858;28;20476;-78
2023/08/04 12:17:53;;;;;;;0.60;0.10;;;22.30;99.90;;;;;;4955242;28;20473;-78
2023/08/04 12:20:22;;;;;;;0.60;0.10;;;;;;;;;;4955958;28;20454;-79
2023/08/04 12:22:50;;;;;;;0.60;0.10;;;22.20;99.90;;;;;;4955972;28;20473;-78
2023/08/04 12:25:18;;;;;;;0.60;0.20;;;;;;;;;;4955433;28;20488;-77
2023/08/04 12:27:46;;;;;;;0.60;0.10;;;22.00;99.90;;;;;;4955312;28;20476;-77
2023/08/04 12:30:15;;;;;;;0.60;0.20;;;21.90;99.90;;;;;;4954964;29;20447;-77
2023/08/04 12:32:44;;;;;;;0.60;0.10;;;21.80;99.90;;;;;;4954992;28;20501;-78
2023/08/04 12:35:12;;;;;;;0.60;0.10;;;;;;;;;;4954949;28;20810;-77
2023/08/04 12:37:40;;;;;;;0.60;0.20;;;21.70;99.90;;;;;;4955308;28;20457;-76
2023/08/04 12:40:09;;;;;;;0.60;0.17;;;21.60;99.90;;;;;;4955296;29;20456;-77
2023/08/04 12:42:37;;;;;;;0.60;0.13;;;21.40;99.90;;;;;;4954864;28;20452;-76
2023/08/04 12:45:06;;;;;;;0.60;0.10;;;21.20;99.90;;;;;;4954435;28;20469;-76
2023/08/04 12:47:34;;;;;;;0.70;0.30;;;21.00;99.10;;;;;;4955053;28;20987;-76
2023/08/04 12:50:03;;;;;;;0.60;0.10;;;;;;;;;;4955241;29;20444;-76
2023/08/04 12:52:32;;;;;;;0.70;0.40;;;;;;;;;;4957769;28;21022;-76
2023/08/04 12:55:00;;;;;;;0.60;0.10;;;20.90;97.20;;;;;;4959029;28;20511;-77
2023/08/04 12:57:29;;;;;;;0.60;0.10;;;20.90;99.50;;;;;;4945801;28;20442;-76
2023/08/04 12:59:57;;;;;;;1.20;1.10;;;;;;;;;;4954514;29;20795;-76
2023/08/04 13:02:25;;;;;;;1.00;0.30;;;20.80;99.90;;;;;;4954996;28;20538;-76
2023/08/04 13:04:54;;;;;;;0.60;0.10;;;20.80;99.90;;;;;;4954066;28;20475;-77
2023/08/04 13:07:23;;;;;;;0.60;0.20;;;20.80;99.50;;;;;;4954576;29;20469;-76
2023/08/04 13:09:51;;;;;;;0.70;0.40;;;;;;;;;;4954162;29;20456;-77
2023/08/04 13:12:19;;;;;;;0.60;0.20;;;20.80;98.70;;;;;;4953499;28;20483;-77
2023/08/04 13:14:47;;;;;;;0.60;0.30;;;20.80;95.80;;;;;;4954485;28;20835;-75
2023/08/04 13:17:16;;;;;;;0.60;0.10;;;20.90;96.20;;;;;;4954613;28;20513;-76
2023/08/04 13:19:46;;;;;;;0.60;0.10;;;20.90;97.00;;;;;;4955018;29;20555;-77
2023/08/04 13:22:14;;;;;;;0.63;0.30;;;20.90;94.30;;;;;;4955272;28;20459;-76
2023/08/04 13:24:43;;;;;;;1.03;0.40;;;21.00;93.70;;;;;;4954406;28;20499;-77
2023/08/04 13:27:11;;;;;;;0.70;0.23;;;21.00;89.50;;;;;;4954834;28;20459;-77
2023/08/04 13:29:39;;;;;;;0.73;0.20;;;21.00;91.80;;;;;;4955132;28;20488;-76
2023/08/04 13:32:07;;;;;;;0.70;0.30;;;21.10;91.70;;;;;;4955007;28;20487;-77
2023/08/04 13:34:36;;;;;;;0.60;0.10;;;21.10;92.20;;;;;;4954656;28;20478;-76
2023/08/04 13:37:05;;;;;;;0.60;0.20;;;21.20;97.20;;;;;;4954383;28;20458;-77
2023/08/04 13:39:33;;;;;;;0.60;0.10;;;21.20;93.20;;;;;;4955000;28;20946;-77
2023/08/04 13:42:02;;;;;;;0.60;0.10;;;21.20;98.60;;;;;;4954816;28;20545;-76
2023/08/04 13:44:30;;;;;;;0.60;0.10;;;;;;;;;;4954671;28;20469;-76
2023/08/04 13:46:58;;;;;;;0.60;0.10;;;21.40;91.30;;;;;;4954030;29;20456;-77
2023/08/04 13:49:26;;;;;;;0.60;0.10;;;21.40;91.80;;;;;;4954236;29;20544;-77
2023/08/04 13:51:53;;;;;;;0.60;0.10;;;21.50;85.40;;;;;;4954241;29;20554;-76
2023/08/04 13:54:21;;;;;;;0.60;0.20;;;21.50;86.20;;;;;;4954863;28;20463;-77
2023/08/04 13:56:49;;;;;;;0.60;0.20;;;21.50;88.30;;;;;;4955482;28;20480;-77
2023/08/04 13:59:18;;;;;;;0.60;0.20;;;21.60;85.10;;;;;;4955458;28;20546;-76
2023/08/04 14:01:47;;;;;;;0.60;0.10;;;;;;;;;;4955332;28;20445;-77
2023/08/04 14:04:15;;;;;;;0.60;0.10;;;21.60;84.70;;;;;;4955243;28;20884;-78
2023/08/04 14:06:43;;;;;;;0.60;0.10;;;21.50;84.20;;;;;;4955691;29;20456;-77
2023/08/04 14:09:11;;;;;;;0.60;0.20;;;21.60;92.50;;;;;;4955702;29;20448;-77
2023/08/04 14:11:43;;;;;;;0.60;0.30;;;21.60;92.00;;;;;;4956517;28;20576;-77
2023/08/04 14:14:11;;;;;;;0.60;0.10;;;21.70;82.50;;;;;;4955699;28;20583;-77
2023/08/04 14:16:40;;;;;;;0.60;0.20;;;;;;;;;;4954423;29;20457;-78
2023/08/04 14:19:09;;;;;;;0.60;0.20;;;21.80;75.50;;;;;;4954337;28;20551;-78
2023/08/04 14:21:37;;;;;;;0.60;0.10;;;;;;;;;;4954238;29;20453;-78
2023/08/04 14:24:05;;;;;;;0.60;0.10;;;21.80;71.90;;;;;;4953112;28;20470;-77
2023/08/04 14:26:33;;;;;;;0.60;0.10;;;21.80;83.50;;;;;;4952697;29;20457;-77
2023/08/04 14:29:01;;;;;;;0.60;0.20;;;21.90;72.00;;;;;;4953771;28;20448;-78
2023/08/04 14:31:29;;;;;;;0.60;0.10;;;21.90;71.60;;;;;;4952188;28;20473;-77
2023/08/04 14:34:00;;;;;;;0.60;0.20;;;;;;;;;;4953414;28;20480;-78
2023/08/04 14:36:28;;;;;;;0.60;0.17;;;22.00;74.20;;;;;;4953896;29;20457;-78
2023/08/04 14:38:57;;;;;;;0.80;0.77;;;21.90;76.60;;;;;;4954019;28;20451;-77
2023/08/04 14:41:25;;;;;;;0.60;0.10;;;;;;;;;;4955260;28;20483;-77
2023/08/04 14:43:53;;;;;;;0.60;0.10;;;22.20;71.30;;;;;;4955877;28;20551;-76
2023/08/04 14:46:21;;;;;;;0.60;0.10;;;22.30;67.90;;;;;;4954735;29;20468;-77
2023/08/04 14:48:49;;;;;;;0.60;0.10;;;22.30;68.10;;;;;;4953988;29;20825;-77
2023/08/04 14:51:19;;;;;;;0.60;0.20;;;22.40;70.40;;;;;;4954308;29;20492;-77
2023/08/04 14:53:47;;;;;;;0.60;0.10;;;22.40;68.40;;;;;;4945957;28;20508;-78
2023/08/04 14:56:15;;;;;;;0.60;0.10;;;22.40;70.50;;;;;;4953637;29;20550;-77
2023/08/04 14:58:43;;;;;;;0.80;0.53;;;22.50;71.10;;;;;;4953776;29;20460;-78
2023/08/04 15:01:13;;;;;;;0.60;0.10;;;;;;;;;;4953439;29;20448;-77
2023/08/04 15:03:41;;;;;;;0.60;0.20;;;22.70;69.90;;;;;;4953462;28;20476;-77
2023/08/04 15:06:11;;;;;;;0.60;0.10;;;22.70;67.30;;;;;;4953334;29;20528;-74
2023/08/04 15:08:40;;;;;;;0.60;0.10;;;22.80;60.80;;;;;;4952931;28;21044;-78
2023/08/04 15:11:09;;;;;;;0.60;0.17;;;23.00;61.80;;;;;;4950309;28;21005;-77
2023/08/04 15:13:37;;;;;;;0.73;0.20;;;;;;;;;;4953571;28;20906;-77
2023/08/04 15:16:11;;;;;;;0.60;0.10;;;23.10;57.40;;;;;;4952791;29;20473;-78
2023/08/04 15:18:40;;;;;;;0.60;0.10;;;;;;;;;;4953432;29;20493;-76
2023/08/04 15:21:09;;;;;;;0.60;0.10;;;;;;;;;;4952391;29;20454;-77
2023/08/04 15:23:37;;;;;;;0.80;0.20;;;;;;;;;;4954421;28;20938;-79
2023/08/04 15:26:06;;;;;;;0.60;0.10;;;23.00;50.60;;;;;;4952374;29;20492;-76
2023/08/04 15:28:34;;;;;;;0.60;0.20;;;23.00;47.70;;;;;;4953027;28;20959;-77
2023/08/04 15:31:06;;;;;;;0.60;0.10;;;22.90;44.30;;;;;;4953374;29;20931;-77
2023/08/04 15:33:36;;;;;;;0.70;0.20;;;22.80;44.10;;;;;;4952536;29;20581;-75
2023/08/04 15:36:07;;;;;;;0.60;0.10;;;22.80;44.90;;;;;;4950214;28;20506;-76
2023/08/04 15:38:35;;;;;;;0.60;0.10;;;;;;;;;;4965795;28;20448;-74
2023/08/04 15:41:06;;;;;;;0.60;0.13;;;22.70;48.20;;;;;;4962291;28;20453;-74
2023/08/04 15:43:37;;;;;;;0.73;0.20;;;22.60;45.20;;;;;;4965851;28;20953;-73
2023/08/04 15:46:05;;;;;;;0.60;0.10;;;;;;;;;;4947087;28;20445;-73
2023/08/04 15:48:33;;;;;;;0.60;0.10;;;22.40;46.20;;;;;;4962280;28;20805;-74
2023/08/04 15:51:02;;;;;;;0.60;0.10;;;;;;;;;;4965875;28;20469;-74
2023/08/04 15:53:30;;;;;;;0.60;0.13;;;22.10;47.70;;;;;;4965978;28;20563;-74
2023/08/04 15:55:59;;;;;;;0.60;0.10;;;;;;;;;;4963544;28;20545;-74
2023/08/04 15:58:28;;;;;;;0.60;0.10;;;22.10;50.50;;;;;;4968662;28;20475;-74
2023/08/04 16:00:56;;;;;;;0.60;0.10;;;22.00;51.50;;;;;;4964393;28;20915;-74
2023/08/04 16:03:23;;;;;;;0.60;0.10;;;22.00;52.50;;;;;;4961672;28;20538;-75
2023/08/04 16:05:58;;;;;;;0.60;0.10;;;21.90;52.00;;;;;;4954107;28;20604;-73
2023/08/04 16:08:26;;;;;;;0.60;0.10;;;;;;;;;;4966495;28;20964;-75
2023/08/04 16:10:58;;;;;;;0.60;0.10;;;21.80;47.40;;;;;;4963730;28;20450;-75
2023/08/04 16:13:28;;;;;;;0.60;0.17;;;21.70;50.90;;;;;;4945587;28;20521;-75
2023/08/04 16:16:00;;;;;;;0.60;0.10;;;21.80;52.80;;;;;;4969899;28;20452;-76
2023/08/04 16:18:31;;;;;;;0.60;0.10;;;21.70;55.00;;;;;;4958372;28;20536;-77
2023/08/04 16:20:59;;;;;;;0.60;0.20;;;;;;;;;;4955888;29;20511;-74
2023/08/04 16:23:27;;;;;;;0.60;0.10;;;21.80;58.40;;;;;;4955810;28;20539;-74
2023/08/04 16:25:56;;;;;;;0.60;0.10;;;21.60;56.60;;;;;;4955428;29;20527;-76
2023/08/04 16:28:23;;;;;;;0.60;0.10;;;21.60;58.20;;;;;;4955730;29;20499;-74
2023/08/04 16:30:53;;;;;;;0.60;0.10;;;;;;;;;;4962931;28;20548;-74
2023/08/04 16:33:21;;;;;;;0.60;0.13;;;;;;;;;;4967252;28;21178;-75
2023/08/04 16:35:49;;;;;;;0.60;0.10;;;21.30;91.60;;;;;;4974156;28;20546;-75
2023/08/04 16:38:17;;;;;;;0.60;0.10;;;21.10;99.90;;;;;;4958145;28;20461;-76
2023/08/04 16:40:45;;;;;;;0.60;0.10;;;21.00;99.90;;;;;;4955128;29;20530;-76
2023/08/04 16:43:13;;;;;;;0.60;0.30;;;20.90;99.90;;;;;;4954540;29;20550;-76
2023/08/04 16:45:42;;;;;;;0.60;0.20;;;20.70;99.90;;;;;;4953447;28;20531;-74
2023/08/04 16:48:12;;;;;;;0.60;0.23;;;;;;;;;;4957668;28;20816;-77
2023/08/04 16:50:40;;;;;;;0.60;0.30;;;20.30;99.90;;;;;;4972784;28;20444;-74
2023/08/04 16:53:08;;;;;;;0.60;0.10;;;;;;;;;;4954268;28;20523;-74
2023/08/04 16:55:36;;;;;;;0.60;0.10;;;20.10;99.90;;;;;;4967704;28;20487;-75
2023/08/04 16:58:04;;;;;;;0.60;0.10;;;20.10;99.90;;;;;;4954341;29;20448;-75
2023/08/04 17:00:31;;;;;;;0.60;0.10;;;20.20;99.90;;;;;;4955575;28;20743;-76
2023/08/04 17:03:00;;;;;;;0.60;0.10;;;20.10;99.90;;;;;;4965219;28;20455;-76
2023/08/04 17:05:32;;;;;;;0.70;0.50;;;20.10;99.90;;;;;;4954028;28;20910;-77
2023/08/04 17:08:00;;;;;;;0.60;0.20;;;20.10;99.90;;;;;;4954637;28;20550;-76